sensor_id;sensor_type;location;lat;lon;timestamp;temperature;humidity
12688;DHT22;6408;59.388;17.798;2022-11-03T00:01:09;8.00;99.90
12688;DHT22;6408;59.388;17.798;2022-11-03T00:03:36;8.00;99.90
12688;DHT22;6408;59.388;17.798;2022-11-03T00:06:04;8.10;99.90
12688;DHT22;6408;59.388;17.798;2022-11-03T00:08:33;8.20;99.90
12688;DHT22;6408;59.388;17.798;2022-11-03T00:11:05;8.20;99.90
12688;DHT22;6408;59.388;17.798;2022-11-03T00:13:33;8.10;99.90
12688;DHT22;6408;59.388;17.798;2022-11-03T00:16:01;8.00;99.90
12688;DHT22;6408;59.388;17.798;2022-11-03T00:18:28;8.00;99.90
12688;DHT22;6408;59.388;17.798;2022-11-03T00:20:59;7.90;99.90
12688;DHT22;6408;59.388;17.798;2022-11-03T00:23:29;7.90;99.90
12688;DHT22;6408;59.388;17.798;2022-11-03T00:26:07;7.90;99.90
12688;DHT22;6408;59.388;17.798;2022-11-03T00:28:36;7.80;99.90
12688;DHT22;6408;59.388;17.798;2022-11-03T00:31:08;7.80;99.90
12688;DHT22;6408;59.388;17.798;2022-11-03T00:33:37;7.80;99.90
12688;DHT22;6408;59.388;17.798;2022-11-03T00:36:06;7.70;99.90
12688;DHT22;6408;59.388;17.798;2022-11-03T00:38:34;7.70;99.90
12688;DHT22;6408;59.388;17.798;2022-11-03T00:41:03;7.70;99.90
12688;DHT22;6408;59.388;17.798;2022-11-03T00:43:34;7.70;99.90
12688;DHT22;6408;59.388;17.798;2022-11-03T00:46:02;7.70;99.90
12688;DHT22;6408;59.388;17.798;2022-11-03T00:48:30;7.70;99.90
12688;DHT22;6408;59.388;17.798;2022-11-03T00:51:07;7.60;99.90
12688;DHT22;6408;59.388;17.798;2022-11-03T00:53:36;7.60;99.90
12688;DHT22;6408;59.388;17.798;2022-11-03T00:56:04;7.60;99.90
12688;DHT22;6408;59.388;17.798;2022-11-03T00:58:33;7.60;99.90
12688;DHT22;6408;59.388;17.798;2022-11-03T01:01:03;7.60;99.90
12688;DHT22;6408;59.388;17.798;2022-11-03T01:03:32;7.60;99.90
12688;DHT22;6408;59.388;17.798;2022-11-03T01:06:00;7.50;99.90
12688;DHT22;6408;59.388;17.798;2022-11-03T01:08:44;7.50;99.90
12688;DHT22;6408;59.388;17.798;2022-11-03T01:11:13;7.40;99.90
12688;DHT22;6408;59.388;17.798;2022-11-03T01:14:00;7.30;99.90
12688;DHT22;6408;59.388;17.798;2022-11-03T01:16:28;7.30;99.90
12688;DHT22;6408;59.388;17.798;2022-11-03T01:18:56;7.20;99.90
12688;DHT22;6408;59.388;17.798;2022-11-03T01:21:24;7.20;99.90
12688;DHT22;6408;59.388;17.798;2022-11-03T01:23:51;7.20;99.90
12688;DHT22;6408;59.388;17.798;2022-11-03T01:26:18;7.30;99.90
12688;DHT22;6408;59.388;17.798;2022-11-03T01:28:46;7.30;99.90
12688;DHT22;6408;59.388;17.798;2022-11-03T01:31:21;7.30;99.90
12688;DHT22;6408;59.388;17.798;2022-11-03T01:33:51;7.20;99.90
12688;DHT22;6408;59.388;17.798;2022-11-03T01:36:19;7.20;99.90
12688;DHT22;6408;59.388;17.798;2022-11-03T01:38:47;7.20;99.90
12688;DHT22;6408;59.388;17.798;2022-11-03T01:41:16;7.10;99.90
12688;DHT22;6408;59.388;17.798;2022-11-03T01:43:45;7.10;99.90
12688;DHT22;6408;59.388;17.798;2022-11-03T01:46:17;7.10;99.90
12688;DHT22;6408;59.388;17.798;2022-11-03T01:48:48;7.10;99.90
12688;DHT22;6408;59.388;17.798;2022-11-03T01:51:21;7.00;99.90
12688;DHT22;6408;59.388;17.798;2022-11-03T01:53:51;7.10;99.90
12688;DHT22;6408;59.388;17.798;2022-11-03T01:56:19;7.20;99.90
12688;DHT22;6408;59.388;17.798;2022-11-03T01:58:49;7.20;99.90
12688;DHT22;6408;59.388;17.798;2022-11-03T02:01:21;7.20;99.90
12688;DHT22;6408;59.388;17.798;2022-11-03T02:03:50;7.20;99.90
12688;DHT22;6408;59.388;17.798;2022-11-03T02:06:21;7.10;99.90
12688;DHT22;6408;59.388;17.798;2022-11-03T02:08:53;7.20;99.90
12688;DHT22;6408;59.388;17.798;2022-11-03T02:11:22;7.20;99.90
12688;DHT22;6408;59.388;17.798;2022-11-03T02:14:10;7.10;99.90
12688;DHT22;6408;59.388;17.798;2022-11-03T02:16:41;7.10;99.90
12688;DHT22;6408;59.388;17.798;2022-11-03T02:19:17;7.10;99.90
12688;DHT22;6408;59.388;17.798;2022-11-03T02:21:54;7.20;99.90
12688;DHT22;6408;59.388;17.798;2022-11-03T02:24:29;7.20;99.90
12688;DHT22;6408;59.388;17.798;2022-11-03T02:26:59;7.20;99.90
12688;DHT22;6408;59.388;17.798;2022-11-03T02:29:26;7.10;99.90
12688;DHT22;6408;59.388;17.798;2022-11-03T02:31:57;7.10;99.90
12688;DHT22;6408;59.388;17.798;2022-11-03T02:34:35;7.20;99.90
12688;DHT22;6408;59.388;17.798;2022-11-03T02:37:09;7.20;99.90
12688;DHT22;6408;59.388;17.798;2022-11-03T02:39:42;7.20;99.90
12688;DHT22;6408;59.388;17.798;2022-11-03T02:42:13;7.10;99.90
12688;DHT22;6408;59.388;17.798;2022-11-03T02:44:42;7.00;99.90
12688;DHT22;6408;59.388;17.798;2022-11-03T02:47:12;7.10;99.90
12688;DHT22;6408;59.388;17.798;2022-11-03T02:49:40;7.10;99.90
12688;DHT22;6408;59.388;17.798;2022-11-03T02:52:32;7.10;99.90
12688;DHT22;6408;59.388;17.798;2022-11-03T02:55:05;7.00;99.90
12688;DHT22;6408;59.388;17.798;2022-11-03T02:57:39;6.90;99.90
12688;DHT22;6408;59.388;17.798;2022-11-03T03:00:10;6.80;99.90
12688;DHT22;6408;59.388;17.798;2022-11-03T03:02:42;6.80;99.90
12688;DHT22;6408;59.388;17.798;2022-11-03T03:05:13;6.80;99.90
12688;DHT22;6408;59.388;17.798;2022-11-03T03:07:46;6.80;99.90
12688;DHT22;6408;59.388;17.798;2022-11-03T03:10:17;6.90;99.90
12688;DHT22;6408;59.388;17.798;2022-11-03T03:12:49;6.90;99.90
12688;DHT22;6408;59.388;17.798;2022-11-03T03:15:18;7.00;99.90
12688;DHT22;6408;59.388;17.798;2022-11-03T03:17:50;7.10;99.90
12688;DHT22;6408;59.388;17.798;2022-11-03T03:20:21;7.30;99.90
12688;DHT22;6408;59.388;17.798;2022-11-03T03:22:54;7.30;99.90
12688;DHT22;6408;59.388;17.798;2022-11-03T03:25:25;7.40;99.90
12688;DHT22;6408;59.388;17.798;2022-11-03T03:28:02;7.40;99.90
12688;DHT22;6408;59.388;17.798;2022-11-03T03:30:32;7.50;99.90
12688;DHT22;6408;59.388;17.798;2022-11-03T03:33:00;7.60;99.90
12688;DHT22;6408;59.388;17.798;2022-11-03T03:35:31;7.60;99.90
12688;DHT22;6408;59.388;17.798;2022-11-03T03:38:04;7.60;99.90
12688;DHT22;6408;59.388;17.798;2022-11-03T03:40:36;7.60;99.90
12688;DHT22;6408;59.388;17.798;2022-11-03T03:43:07;7.70;99.90
12688;DHT22;6408;59.388;17.798;2022-11-03T03:45:36;7.70;99.90
12688;DHT22;6408;59.388;17.798;2022-11-03T03:48:05;7.70;99.90
12688;DHT22;6408;59.388;17.798;2022-11-03T03:50:35;7.80;99.90
12688;DHT22;6408;59.388;17.798;2022-11-03T03:53:05;7.80;99.90
12688;DHT22;6408;59.388;17.798;2022-11-03T03:55:34;7.80;99.90
12688;DHT22;6408;59.388;17.798;2022-11-03T03:58:05;7.80;99.90
12688;DHT22;6408;59.388;17.798;2022-11-03T04:00:32;7.80;99.90
12688;DHT22;6408;59.388;17.798;2022-11-03T04:03:00;7.80;99.90
12688;DHT22;6408;59.388;17.798;2022-11-03T04:05:27;7.90;99.90
12688;DHT22;6408;59.388;17.798;2022-11-03T04:07:55;7.90;99.90
12688;DHT22;6408;59.388;17.798;2022-11-03T04:10:24;7.90;99.90
12688;DHT22;6408;59.388;17.798;2022-11-03T04:12:51;7.80;99.90
12688;DHT22;6408;59.388;17.798;2022-11-03T04:15:39;7.90;99.90
12688;DHT22;6408;59.388;17.798;2022-11-03T04:18:23;7.90;99.90
12688;DHT22;6408;59.388;17.798;2022-11-03T04:21:10;7.90;99.90
12688;DHT22;6408;59.388;17.798;2022-11-03T04:23:55;7.90;99.90
12688;DHT22;6408;59.388;17.798;2022-11-03T04:26:23;7.80;99.90
12688;DHT22;6408;59.388;17.798;2022-11-03T04:28:51;7.80;99.90
12688;DHT22;6408;59.388;17.798;2022-11-03T04:31:20;7.70;99.90
12688;DHT22;6408;59.388;17.798;2022-11-03T04:33:48;7.60;99.90
12688;DHT22;6408;59.388;17.798;2022-11-03T04:36:18;7.50;99.90
12688;DHT22;6408;59.388;17.798;2022-11-03T04:38:47;7.50;99.90
12688;DHT22;6408;59.388;17.798;2022-11-03T04:41:17;7.40;99.90
12688;DHT22;6408;59.388;17.798;2022-11-03T04:43:46;7.30;99.90
12688;DHT22;6408;59.388;17.798;2022-11-03T04:46:16;7.30;99.90
12688;DHT22;6408;59.388;17.798;2022-11-03T04:48:45;7.20;99.90
12688;DHT22;6408;59.388;17.798;2022-11-03T04:51:14;7.10;99.90
12688;DHT22;6408;59.388;17.798;2022-11-03T04:53:47;7.10;99.90
12688;DHT22;6408;59.388;17.798;2022-11-03T04:56:17;7.00;99.90
12688;DHT22;6408;59.388;17.798;2022-11-03T04:58:46;7.00;99.90
12688;DHT22;6408;59.388;17.798;2022-11-03T05:01:15;6.90;99.90
12688;DHT22;6408;59.388;17.798;2022-11-03T05:03:47;6.80;99.90
12688;DHT22;6408;59.388;17.798;2022-11-03T05:06:17;6.80;99.90
12688;DHT22;6408;59.388;17.798;2022-11-03T05:08:47;6.80;99.90
12688;DHT22;6408;59.388;17.798;2022-11-03T05:11:19;6.80;99.90
12688;DHT22;6408;59.388;17.798;2022-11-03T05:13:47;6.70;99.90
12688;DHT22;6408;59.388;17.798;2022-11-03T05:16:15;6.70;99.90
12688;DHT22;6408;59.388;17.798;2022-11-03T05:18:45;6.70;99.90
12688;DHT22;6408;59.388;17.798;2022-11-03T05:21:15;6.60;99.90
12688;DHT22;6408;59.388;17.798;2022-11-03T05:23:45;6.60;99.90
12688;DHT22;6408;59.388;17.798;2022-11-03T05:26:15;6.50;99.90
12688;DHT22;6408;59.388;17.798;2022-11-03T05:28:46;6.50;99.90
12688;DHT22;6408;59.388;17.798;2022-11-03T05:31:21;6.40;99.90
12688;DHT22;6408;59.388;17.798;2022-11-03T05:33:52;6.50;99.90
12688;DHT22;6408;59.388;17.798;2022-11-03T05:36:21;6.50;99.90
12688;DHT22;6408;59.388;17.798;2022-11-03T05:38:49;6.50;99.90
12688;DHT22;6408;59.388;17.798;2022-11-03T05:41:21;6.40;99.90
12688;DHT22;6408;59.388;17.798;2022-11-03T05:43:55;6.30;99.90
12688;DHT22;6408;59.388;17.798;2022-11-03T05:46:25;6.40;99.90
12688;DHT22;6408;59.388;17.798;2022-11-03T05:48:54;6.40;99.90
12688;DHT22;6408;59.388;17.798;2022-11-03T05:51:25;6.40;99.90
12688;DHT22;6408;59.388;17.798;2022-11-03T05:53:56;6.30;99.90
12688;DHT22;6408;59.388;17.798;2022-11-03T05:56:24;6.30;99.90
12688;DHT22;6408;59.388;17.798;2022-11-03T05:58:54;6.30;99.90
12688;DHT22;6408;59.388;17.798;2022-11-03T06:01:25;6.30;99.90
12688;DHT22;6408;59.388;17.798;2022-11-03T06:03:56;6.30;99.90
12688;DHT22;6408;59.388;17.798;2022-11-03T06:06:29;6.30;99.90
12688;DHT22;6408;59.388;17.798;2022-11-03T06:09:00;6.30;99.90
12688;DHT22;6408;59.388;17.798;2022-11-03T06:11:32;6.20;99.90
12688;DHT22;6408;59.388;17.798;2022-11-03T06:14:04;6.30;99.90
12688;DHT22;6408;59.388;17.798;2022-11-03T06:16:40;6.20;99.90
12688;DHT22;6408;59.388;17.798;2022-11-03T06:19:19;6.20;99.90
12688;DHT22;6408;59.388;17.798;2022-11-03T06:21:48;6.20;99.90
12688;DHT22;6408;59.388;17.798;2022-11-03T06:24:18;6.20;99.90
12688;DHT22;6408;59.388;17.798;2022-11-03T06:26:47;6.10;99.90
12688;DHT22;6408;59.388;17.798;2022-11-03T06:29:18;6.10;99.90
12688;DHT22;6408;59.388;17.798;2022-11-03T06:31:47;6.10;99.90
12688;DHT22;6408;59.388;17.798;2022-11-03T06:37:20;6.20;99.90
12688;DHT22;6408;59.388;17.798;2022-11-03T06:39:49;6.20;99.90
12688;DHT22;6408;59.388;17.798;2022-11-03T06:42:20;6.20;99.90
12688;DHT22;6408;59.388;17.798;2022-11-03T06:44:49;6.20;99.90
12688;DHT22;6408;59.388;17.798;2022-11-03T06:47:22;6.20;99.90
12688;DHT22;6408;59.388;17.798;2022-11-03T06:49:51;6.20;99.90
12688;DHT22;6408;59.388;17.798;2022-11-03T06:52:41;6.30;99.90
12688;DHT22;6408;59.388;17.798;2022-11-03T06:55:22;6.30;99.90
12688;DHT22;6408;59.388;17.798;2022-11-03T06:57:53;6.30;99.90
12688;DHT22;6408;59.388;17.798;2022-11-03T07:00:23;6.30;99.90
12688;DHT22;6408;59.388;17.798;2022-11-03T07:03:04;6.40;99.90
12688;DHT22;6408;59.388;17.798;2022-11-03T07:05:33;6.40;99.90
12688;DHT22;6408;59.388;17.798;2022-11-03T07:08:11;6.40;99.90
12688;DHT22;6408;59.388;17.798;2022-11-03T07:10:40;6.50;99.90
12688;DHT22;6408;59.388;17.798;2022-11-03T07:13:12;6.50;99.90
12688;DHT22;6408;59.388;17.798;2022-11-03T07:15:41;6.50;99.90
12688;DHT22;6408;59.388;17.798;2022-11-03T07:18:18;6.60;99.90
12688;DHT22;6408;59.388;17.798;2022-11-03T07:20:46;6.60;99.90
12688;DHT22;6408;59.388;17.798;2022-11-03T07:23:20;6.60;99.90
12688;DHT22;6408;59.388;17.798;2022-11-03T07:25:50;6.70;99.90
12688;DHT22;6408;59.388;17.798;2022-11-03T07:28:20;6.80;99.90
12688;DHT22;6408;59.388;17.798;2022-11-03T07:30:48;6.80;99.90
12688;DHT22;6408;59.388;17.798;2022-11-03T07:33:18;6.90;99.90
12688;DHT22;6408;59.388;17.798;2022-11-03T07:35:48;7.00;99.90
12688;DHT22;6408;59.388;17.798;2022-11-03T07:38:19;7.10;99.90
12688;DHT22;6408;59.388;17.798;2022-11-03T07:40:47;7.10;99.90
12688;DHT22;6408;59.388;17.798;2022-11-03T07:43:17;7.10;99.90
12688;DHT22;6408;59.388;17.798;2022-11-03T07:45:48;7.10;99.90
12688;DHT22;6408;59.388;17.798;2022-11-03T07:48:22;7.10;99.90
12688;DHT22;6408;59.388;17.798;2022-11-03T07:50:51;7.10;99.90
12688;DHT22;6408;59.388;17.798;2022-11-03T07:53:33;7.20;99.90
12688;DHT22;6408;59.388;17.798;2022-11-03T07:56:12;7.20;99.90
12688;DHT22;6408;59.388;17.798;2022-11-03T07:58:41;7.20;99.90
12688;DHT22;6408;59.388;17.798;2022-11-03T08:01:24;7.20;99.90
12688;DHT22;6408;59.388;17.798;2022-11-03T08:03:56;7.20;99.90
12688;DHT22;6408;59.388;17.798;2022-11-03T08:06:25;7.30;99.90
12688;DHT22;6408;59.388;17.798;2022-11-03T08:08:53;7.40;99.90
12688;DHT22;6408;59.388;17.798;2022-11-03T08:11:21;7.40;99.90
12688;DHT22;6408;59.388;17.798;2022-11-03T08:13:49;7.50;99.90
12688;DHT22;6408;59.388;17.798;2022-11-03T08:16:16;7.70;99.90
12688;DHT22;6408;59.388;17.798;2022-11-03T08:18:44;7.80;99.90
12688;DHT22;6408;59.388;17.798;2022-11-03T08:21:12;8.00;99.90
12688;DHT22;6408;59.388;17.798;2022-11-03T08:23:39;8.10;99.90
12688;DHT22;6408;59.388;17.798;2022-11-03T08:26:08;8.10;99.90
12688;DHT22;6408;59.388;17.798;2022-11-03T08:28:36;8.10;99.90
12688;DHT22;6408;59.388;17.798;2022-11-03T08:31:03;8.10;99.90
12688;DHT22;6408;59.388;17.798;2022-11-03T08:33:31;8.00;99.90
12688;DHT22;6408;59.388;17.798;2022-11-03T08:36:00;7.90;99.90
12688;DHT22;6408;59.388;17.798;2022-11-03T08:38:28;8.00;99.90
12688;DHT22;6408;59.388;17.798;2022-11-03T08:40:56;8.00;99.90
12688;DHT22;6408;59.388;17.798;2022-11-03T08:43:26;8.10;99.90
12688;DHT22;6408;59.388;17.798;2022-11-03T08:45:54;8.20;99.90
12688;DHT22;6408;59.388;17.798;2022-11-03T08:48:22;8.50;99.90
12688;DHT22;6408;59.388;17.798;2022-11-03T08:50:49;8.60;99.90
12688;DHT22;6408;59.388;17.798;2022-11-03T08:53:18;8.60;99.90
12688;DHT22;6408;59.388;17.798;2022-11-03T08:55:46;8.60;99.90
12688;DHT22;6408;59.388;17.798;2022-11-03T08:58:13;8.60;99.90
12688;DHT22;6408;59.388;17.798;2022-11-03T09:00:43;8.50;99.90
12688;DHT22;6408;59.388;17.798;2022-11-03T09:03:10;8.40;99.90
12688;DHT22;6408;59.388;17.798;2022-11-03T09:05:37;8.40;99.90
12688;DHT22;6408;59.388;17.798;2022-11-03T09:08:05;8.40;99.90
12688;DHT22;6408;59.388;17.798;2022-11-03T09:10:33;8.40;99.90
12688;DHT22;6408;59.388;17.798;2022-11-03T09:13:00;8.50;99.90
12688;DHT22;6408;59.388;17.798;2022-11-03T09:15:28;8.50;99.90
12688;DHT22;6408;59.388;17.798;2022-11-03T09:17:57;8.50;99.90
12688;DHT22;6408;59.388;17.798;2022-11-03T09:20:25;8.50;99.90
12688;DHT22;6408;59.388;17.798;2022-11-03T09:22:52;8.50;99.90
12688;DHT22;6408;59.388;17.798;2022-11-03T09:25:19;8.50;99.90
12688;DHT22;6408;59.388;17.798;2022-11-03T09:27:47;8.60;99.90
12688;DHT22;6408;59.388;17.798;2022-11-03T09:30:14;8.60;99.90
12688;DHT22;6408;59.388;17.798;2022-11-03T09:32:42;8.70;99.90
12688;DHT22;6408;59.388;17.798;2022-11-03T09:35:12;8.80;99.90
12688;DHT22;6408;59.388;17.798;2022-11-03T09:37:41;8.90;99.90
12688;DHT22;6408;59.388;17.798;2022-11-03T09:40:10;8.90;99.90
12688;DHT22;6408;59.388;17.798;2022-11-03T09:42:40;8.90;99.90
12688;DHT22;6408;59.388;17.798;2022-11-03T09:45:08;8.90;99.90
12688;DHT22;6408;59.388;17.798;2022-11-03T09:47:38;9.00;99.90
12688;DHT22;6408;59.388;17.798;2022-11-03T09:50:09;9.10;99.90
12688;DHT22;6408;59.388;17.798;2022-11-03T09:52:40;9.10;99.90
12688;DHT22;6408;59.388;17.798;2022-11-03T09:55:12;9.20;99.90
12688;DHT22;6408;59.388;17.798;2022-11-03T09:57:41;9.30;99.90
12688;DHT22;6408;59.388;17.798;2022-11-03T10:00:17;9.50;99.90
12688;DHT22;6408;59.388;17.798;2022-11-03T10:02:45;9.60;99.90
12688;DHT22;6408;59.388;17.798;2022-11-03T10:05:13;9.70;99.90
12688;DHT22;6408;59.388;17.798;2022-11-03T10:07:44;9.80;99.90
12688;DHT22;6408;59.388;17.798;2022-11-03T10:10:16;10.00;99.90
12688;DHT22;6408;59.388;17.798;2022-11-03T10:12:46;10.10;99.90
12688;DHT22;6408;59.388;17.798;2022-11-03T10:15:15;10.20;99.90
12688;DHT22;6408;59.388;17.798;2022-11-03T10:17:43;10.30;99.90
12688;DHT22;6408;59.388;17.798;2022-11-03T10:20:12;10.30;99.90
12688;DHT22;6408;59.388;17.798;2022-11-03T10:22:41;10.30;99.90
12688;DHT22;6408;59.388;17.798;2022-11-03T10:25:34;10.20;99.90
12688;DHT22;6408;59.388;17.798;2022-11-03T10:28:13;10.10;99.90
12688;DHT22;6408;59.388;17.798;2022-11-03T10:30:48;10.00;99.90
12688;DHT22;6408;59.388;17.798;2022-11-03T10:33:27;10.00;99.90
12688;DHT22;6408;59.388;17.798;2022-11-03T10:35:58;10.00;99.90
12688;DHT22;6408;59.388;17.798;2022-11-03T10:38:28;10.00;99.90
12688;DHT22;6408;59.388;17.798;2022-11-03T10:41:09;9.90;99.90
12688;DHT22;6408;59.388;17.798;2022-11-03T10:43:37;10.00;99.90
12688;DHT22;6408;59.388;17.798;2022-11-03T10:46:14;10.00;99.90
12688;DHT22;6408;59.388;17.798;2022-11-03T10:48:42;10.10;99.90
12688;DHT22;6408;59.388;17.798;2022-11-03T10:51:11;10.20;99.90
12688;DHT22;6408;59.388;17.798;2022-11-03T10:53:39;10.30;99.90
12688;DHT22;6408;59.388;17.798;2022-11-03T10:56:09;10.30;99.90
12688;DHT22;6408;59.388;17.798;2022-11-03T10:58:37;10.40;99.90
12688;DHT22;6408;59.388;17.798;2022-11-03T11:01:05;10.40;99.90
12688;DHT22;6408;59.388;17.798;2022-11-03T11:03:42;10.40;99.90
12688;DHT22;6408;59.388;17.798;2022-11-03T11:06:17;10.40;99.90
12688;DHT22;6408;59.388;17.798;2022-11-03T11:08:46;10.30;99.90
12688;DHT22;6408;59.388;17.798;2022-11-03T11:11:16;10.30;99.90
12688;DHT22;6408;59.388;17.798;2022-11-03T11:13:43;10.20;99.90
12688;DHT22;6408;59.388;17.798;2022-11-03T11:19:12;10.20;99.90
12688;DHT22;6408;59.388;17.798;2022-11-03T11:22:12;10.20;99.90
12688;DHT22;6408;59.388;17.798;2022-11-03T11:25:02;10.20;99.90
12688;DHT22;6408;59.388;17.798;2022-11-03T11:33:47;10.40;99.90
12688;DHT22;6408;59.388;17.798;2022-11-03T11:36:21;10.50;99.90
12688;DHT22;6408;59.388;17.798;2022-11-03T11:38:58;10.50;99.90
12688;DHT22;6408;59.388;17.798;2022-11-03T11:42:05;10.40;99.90
12688;DHT22;6408;59.388;17.798;2022-11-03T11:44:55;10.30;99.90
12688;DHT22;6408;59.388;17.798;2022-11-03T11:47:25;10.20;99.90
12688;DHT22;6408;59.388;17.798;2022-11-03T11:50:14;10.10;99.90
12688;DHT22;6408;59.388;17.798;2022-11-03T11:52:44;10.10;99.90
12688;DHT22;6408;59.388;17.798;2022-11-03T11:55:16;10.20;99.90
12688;DHT22;6408;59.388;17.798;2022-11-03T11:57:45;10.20;99.90
12688;DHT22;6408;59.388;17.798;2022-11-03T12:00:19;10.20;99.90
12688;DHT22;6408;59.388;17.798;2022-11-03T12:02:47;10.30;99.90
12688;DHT22;6408;59.388;17.798;2022-11-03T12:05:22;10.30;99.90
12688;DHT22;6408;59.388;17.798;2022-11-03T12:07:51;10.30;99.90
12688;DHT22;6408;59.388;17.798;2022-11-03T12:10:21;10.30;99.90
12688;DHT22;6408;59.388;17.798;2022-11-03T12:12:51;10.40;99.90
12688;DHT22;6408;59.388;17.798;2022-11-03T12:15:47;10.50;99.90
12688;DHT22;6408;59.388;17.798;2022-11-03T12:18:31;11.00;99.90
12688;DHT22;6408;59.388;17.798;2022-11-03T12:21:00;11.30;99.90
12688;DHT22;6408;59.388;17.798;2022-11-03T12:23:35;11.40;99.90
12688;DHT22;6408;59.388;17.798;2022-11-03T12:26:05;11.20;99.90
12688;DHT22;6408;59.388;17.798;2022-11-03T12:28:34;11.00;99.90
12688;DHT22;6408;59.388;17.798;2022-11-03T12:31:02;11.30;99.90
12688;DHT22;6408;59.388;17.798;2022-11-03T12:33:48;11.50;99.90
12688;DHT22;6408;59.388;17.798;2022-11-03T12:36:17;11.40;99.90
12688;DHT22;6408;59.388;17.798;2022-11-03T12:38:45;11.30;99.90
12688;DHT22;6408;59.388;17.798;2022-11-03T12:41:13;11.10;99.90
12688;DHT22;6408;59.388;17.798;2022-11-03T12:43:51;11.00;99.90
12688;DHT22;6408;59.388;17.798;2022-11-03T12:46:23;10.80;99.90
12688;DHT22;6408;59.388;17.798;2022-11-03T12:48:50;10.70;99.90
12688;DHT22;6408;59.388;17.798;2022-11-03T12:51:21;10.70;99.90
12688;DHT22;6408;59.388;17.798;2022-11-03T12:53:49;10.60;99.90
12688;DHT22;6408;59.388;17.798;2022-11-03T12:56:17;10.40;99.90
12688;DHT22;6408;59.388;17.798;2022-11-03T12:58:45;10.20;99.90
12688;DHT22;6408;59.388;17.798;2022-11-03T13:01:12;10.10;99.90
12688;DHT22;6408;59.388;17.798;2022-11-03T13:03:40;9.90;99.90
12688;DHT22;6408;59.388;17.798;2022-11-03T13:06:08;9.90;99.90
12688;DHT22;6408;59.388;17.798;2022-11-03T13:08:39;9.90;99.90
12688;DHT22;6408;59.388;17.798;2022-11-03T13:11:06;9.90;99.90
12688;DHT22;6408;59.388;17.798;2022-11-03T13:13:54;9.80;99.90
12688;DHT22;6408;59.388;17.798;2022-11-03T13:16:22;9.80;99.90
12688;DHT22;6408;59.388;17.798;2022-11-03T13:18:49;9.70;99.90
12688;DHT22;6408;59.388;17.798;2022-11-03T13:21:16;9.70;99.90
12688;DHT22;6408;59.388;17.798;2022-11-03T13:23:45;9.70;99.90
12688;DHT22;6408;59.388;17.798;2022-11-03T13:26:13;9.70;99.90
12688;DHT22;6408;59.388;17.798;2022-11-03T13:28:40;9.70;99.90
12688;DHT22;6408;59.388;17.798;2022-11-03T13:31:07;9.60;99.90
12688;DHT22;6408;59.388;17.798;2022-11-03T13:33:35;9.50;99.90
12688;DHT22;6408;59.388;17.798;2022-11-03T13:36:02;9.50;99.90
12688;DHT22;6408;59.388;17.798;2022-11-03T13:38:29;9.50;99.90
12688;DHT22;6408;59.388;17.798;2022-11-03T13:40:58;9.50;99.90
12688;DHT22;6408;59.388;17.798;2022-11-03T13:43:26;9.50;99.90
12688;DHT22;6408;59.388;17.798;2022-11-03T13:45:54;9.40;99.90
12688;DHT22;6408;59.388;17.798;2022-11-03T13:48:23;9.40;99.90
12688;DHT22;6408;59.388;17.798;2022-11-03T13:50:50;9.30;99.90
12688;DHT22;6408;59.388;17.798;2022-11-03T13:53:18;9.30;99.90
12688;DHT22;6408;59.388;17.798;2022-11-03T13:55:46;9.40;99.90
12688;DHT22;6408;59.388;17.798;2022-11-03T13:58:15;9.30;99.90
12688;DHT22;6408;59.388;17.798;2022-11-03T14:00:42;9.30;99.90
12688;DHT22;6408;59.388;17.798;2022-11-03T14:03:09;9.30;99.90
12688;DHT22;6408;59.388;17.798;2022-11-03T14:05:36;9.30;99.90
12688;DHT22;6408;59.388;17.798;2022-11-03T14:08:03;9.20;99.90
12688;DHT22;6408;59.388;17.798;2022-11-03T14:10:31;9.30;99.90
12688;DHT22;6408;59.388;17.798;2022-11-03T14:12:58;9.20;99.90
12688;DHT22;6408;59.388;17.798;2022-11-03T14:15:27;9.20;99.90
12688;DHT22;6408;59.388;17.798;2022-11-03T14:17:54;9.20;99.90
12688;DHT22;6408;59.388;17.798;2022-11-03T14:20:21;9.20;99.90
12688;DHT22;6408;59.388;17.798;2022-11-03T14:22:48;9.20;99.90
12688;DHT22;6408;59.388;17.798;2022-11-03T14:25:15;9.20;99.90
12688;DHT22;6408;59.388;17.798;2022-11-03T14:27:44;9.20;99.90
12688;DHT22;6408;59.388;17.798;2022-11-03T14:30:12;9.20;99.90
12688;DHT22;6408;59.388;17.798;2022-11-03T14:32:41;9.10;99.90
12688;DHT22;6408;59.388;17.798;2022-11-03T14:35:08;9.00;99.90
12688;DHT22;6408;59.388;17.798;2022-11-03T14:37:36;9.10;99.90
12688;DHT22;6408;59.388;17.798;2022-11-03T14:40:04;9.10;99.90
12688;DHT22;6408;59.388;17.798;2022-11-03T14:42:31;9.10;99.90
12688;DHT22;6408;59.388;17.798;2022-11-03T14:44:58;9.10;99.90
12688;DHT22;6408;59.388;17.798;2022-11-03T14:47:25;9.00;99.90
12688;DHT22;6408;59.388;17.798;2022-11-03T14:49:57;9.00;99.90
12688;DHT22;6408;59.388;17.798;2022-11-03T14:52:27;9.00;99.90
12688;DHT22;6408;59.388;17.798;2022-11-03T14:54:55;9.00;99.90
12688;DHT22;6408;59.388;17.798;2022-11-03T14:57:22;9.00;99.90
12688;DHT22;6408;59.388;17.798;2022-11-03T14:59:49;9.10;99.90
12688;DHT22;6408;59.388;17.798;2022-11-03T15:02:17;9.00;99.90
12688;DHT22;6408;59.388;17.798;2022-11-03T15:04:44;9.00;99.90
12688;DHT22;6408;59.388;17.798;2022-11-03T15:07:13;9.00;99.90
12688;DHT22;6408;59.388;17.798;2022-11-03T15:09:41;8.90;99.90
12688;DHT22;6408;59.388;17.798;2022-11-03T15:12:08;8.90;99.90
12688;DHT22;6408;59.388;17.798;2022-11-03T15:14:35;8.90;99.90
12688;DHT22;6408;59.388;17.798;2022-11-03T15:17:03;8.90;99.90
12688;DHT22;6408;59.388;17.798;2022-11-03T15:19:30;8.80;99.90
12688;DHT22;6408;59.388;17.798;2022-11-03T15:21:57;8.80;99.90
12688;DHT22;6408;59.388;17.798;2022-11-03T15:24:26;8.80;99.90
12688;DHT22;6408;59.388;17.798;2022-11-03T15:26:53;8.80;99.90
12688;DHT22;6408;59.388;17.798;2022-11-03T15:29:20;8.70;99.90
12688;DHT22;6408;59.388;17.798;2022-11-03T15:31:48;8.70;99.90
12688;DHT22;6408;59.388;17.798;2022-11-03T15:34:15;8.70;99.90
12688;DHT22;6408;59.388;17.798;2022-11-03T15:36:42;8.60;99.90
12688;DHT22;6408;59.388;17.798;2022-11-03T15:39:10;8.60;99.90
12688;DHT22;6408;59.388;17.798;2022-11-03T15:41:39;8.60;99.90
12688;DHT22;6408;59.388;17.798;2022-11-03T15:44:06;8.60;99.90
12688;DHT22;6408;59.388;17.798;2022-11-03T15:46:34;8.50;99.90
12688;DHT22;6408;59.388;17.798;2022-11-03T15:49:02;8.50;99.90
12688;DHT22;6408;59.388;17.798;2022-11-03T15:51:29;8.50;99.90
12688;DHT22;6408;59.388;17.798;2022-11-03T15:53:56;8.50;99.90
12688;DHT22;6408;59.388;17.798;2022-11-03T15:56:23;8.50;99.90
12688;DHT22;6408;59.388;17.798;2022-11-03T15:58:52;8.50;99.90
12688;DHT22;6408;59.388;17.798;2022-11-03T16:01:19;8.50;99.90
12688;DHT22;6408;59.388;17.798;2022-11-03T16:03:46;8.40;99.90
12688;DHT22;6408;59.388;17.798;2022-11-03T16:06:13;8.40;99.90
12688;DHT22;6408;59.388;17.798;2022-11-03T16:08:40;8.40;99.90
12688;DHT22;6408;59.388;17.798;2022-11-03T16:11:08;8.40;99.90
12688;DHT22;6408;59.388;17.798;2022-11-03T16:13:35;8.40;99.90
12688;DHT22;6408;59.388;17.798;2022-11-03T16:16:04;8.50;99.90